sensor_id;sensor_type;location;lat;lon;timestamp;pressure;altitude;pressure_sealevel;temperature;humidity
4199;BME280;2113;50.946;14.610;2022-12-07T00:01:45;96674.66;;;3.28;69.91
4199;BME280;2113;50.946;14.610;2022-12-07T00:04:16;96668.97;;;3.06;69.40
4199;BME280;2113;50.946;14.610;2022-12-07T00:06:47;96669.75;;;3.09;70.08
4199;BME280;2113;50.946;14.610;2022-12-07T00:09:19;96669.22;;;2.87;70.84
4199;BME280;2113;50.946;14.610;2022-12-07T00:11:49;96675.19;;;2.89;70.83
4199;BME280;2113;50.946;14.610;2022-12-07T00:14:20;96673.53;;;2.85;71.13
4199;BME280;2113;50.946;14.610;2022-12-07T00:16:51;96667.16;;;3.14;70.80
4199;BME280;2113;50.946;14.610;2022-12-07T00:19:20;96656.97;;;3.08;71.07
4199;BME280;2113;50.946;14.610;2022-12-07T00:21:48;96662.25;;;2.96;70.49
4199;BME280;2113;50.946;14.610;2022-12-07T00:24:16;96663.16;;;2.91;71.28
4199;BME280;2113;50.946;14.610;2022-12-07T00:26:45;96660.50;;;2.98;71.68
4199;BME280;2113;50.946;14.610;2022-12-07T00:29:18;96660.53;;;2.96;71.45
4199;BME280;2113;50.946;14.610;2022-12-07T00:31:47;96649.09;;;3.19;70.84
4199;BME280;2113;50.946;14.610;2022-12-07T00:34:19;96649.28;;;3.06;71.33
4199;BME280;2113;50.946;14.610;2022-12-07T00:36:48;96652.91;;;2.90;71.23
4199;BME280;2113;50.946;14.610;2022-12-07T00:39:19;96650.94;;;3.10;71.97
4199;BME280;2113;50.946;14.610;2022-12-07T00:41:47;96654.63;;;2.91;72.22
4199;BME280;2113;50.946;14.610;2022-12-07T00:44:16;96651.84;;;3.05;72.12
4199;BME280;2113;50.946;14.610;2022-12-07T00:46:44;96655.00;;;3.25;72.16
4199;BME280;2113;50.946;14.610;2022-12-07T00:49:15;96649.28;;;3.05;71.12
4199;BME280;2113;50.946;14.610;2022-12-07T00:51:44;96653.56;;;3.06;71.30
4199;BME280;2113;50.946;14.610;2022-12-07T00:54:12;96653.81;;;2.86;71.57
4199;BME280;2113;50.946;14.610;2022-12-07T00:56:41;96653.69;;;2.97;71.84
4199;BME280;2113;50.946;14.610;2022-12-07T00:59:12;96655.00;;;3.25;71.04
4199;BME280;2113;50.946;14.610;2022-12-07T01:01:41;96655.53;;;2.85;72.04
4199;BME280;2113;50.946;14.610;2022-12-07T01:04:09;96649.19;;;3.11;71.97
4199;BME280;2113;50.946;14.610;2022-12-07T01:06:38;96657.13;;;2.96;71.34
4199;BME280;2113;50.946;14.610;2022-12-07T01:09:10;96659.75;;;2.91;71.55
4199;BME280;2113;50.946;14.610;2022-12-07T01:11:39;96656.38;;;2.87;72.83
4199;BME280;2113;50.946;14.610;2022-12-07T01:14:09;96662.53;;;2.74;72.67
4199;BME280;2113;50.946;14.610;2022-12-07T01:16:38;96662.63;;;2.65;73.11
4199;BME280;2113;50.946;14.610;2022-12-07T01:19:07;96658.94;;;2.87;72.52
4199;BME280;2113;50.946;14.610;2022-12-07T01:21:35;96663.78;;;3.10;72.09
4199;BME280;2113;50.946;14.610;2022-12-07T01:24:06;96667.16;;;3.14;72.04
4199;BME280;2113;50.946;14.610;2022-12-07T01:26:39;96665.91;;;2.79;72.13
4199;BME280;2113;50.946;14.610;2022-12-07T01:29:07;96675.66;;;2.49;73.01
4199;BME280;2113;50.946;14.610;2022-12-07T01:31:35;96671.97;;;2.70;72.47
4199;BME280;2113;50.946;14.610;2022-12-07T01:34:04;96664.31;;;2.67;72.54
4199;BME280;2113;50.946;14.610;2022-12-07T01:36:34;96670.91;;;2.88;72.22
4199;BME280;2113;50.946;14.610;2022-12-07T01:39:04;96669.22;;;2.87;71.78
4199;BME280;2113;50.946;14.610;2022-12-07T01:41:34;96668.31;;;2.88;71.27
4199;BME280;2113;50.946;14.610;2022-12-07T01:44:20;96659.97;;;2.74;71.07
4199;BME280;2113;50.946;14.610;2022-12-07T01:46:49;96654.41;;;3.06;70.30
4199;BME280;2113;50.946;14.610;2022-12-07T01:49:26;96657.22;;;2.86;70.42
4199;BME280;2113;50.946;14.610;2022-12-07T01:52:00;96645.16;;;2.94;69.79
4199;BME280;2113;50.946;14.610;2022-12-07T01:54:30;96647.31;;;2.59;69.58
4199;BME280;2113;50.946;14.610;2022-12-07T01:56:59;96648.97;;;2.63;70.20
4199;BME280;2113;50.946;14.610;2022-12-07T01:59:29;96655.66;;;2.74;70.73
4199;BME280;2113;50.946;14.610;2022-12-07T02:01:57;96647.84;;;2.85;69.33
4199;BME280;2113;50.946;14.610;2022-12-07T02:04:26;96650.53;;;2.76;70.22
4199;BME280;2113;50.946;14.610;2022-12-07T02:06:54;96653.00;;;2.84;69.91
4199;BME280;2113;50.946;14.610;2022-12-07T02:09:23;96645.72;;;3.15;69.16
4199;BME280;2113;50.946;14.610;2022-12-07T02:11:52;96643.81;;;2.64;69.90
4199;BME280;2113;50.946;14.610;2022-12-07T02:14:21;96636.44;;;3.05;68.97
4199;BME280;2113;50.946;14.610;2022-12-07T02:16:59;96642.59;;;2.94;69.27
4199;BME280;2113;50.946;14.610;2022-12-07T02:23:04;96639.09;;;3.00;69.08
4199;BME280;2113;50.946;14.610;2022-12-07T02:25:52;96638.81;;;3.19;68.44
4199;BME280;2113;50.946;14.610;2022-12-07T02:28:28;96632.97;;;3.09;68.54
4199;BME280;2113;50.946;14.610;2022-12-07T02:31:04;96628.03;;;2.93;69.36
4199;BME280;2113;50.946;14.610;2022-12-07T02:33:36;96624.00;;;3.36;67.95
4199;BME280;2113;50.946;14.610;2022-12-07T02:36:11;96631.19;;;3.14;68.89
4199;BME280;2113;50.946;14.610;2022-12-07T02:38:45;96634.44;;;3.25;67.99
4199;BME280;2113;50.946;14.610;2022-12-07T02:41:20;96635.81;;;2.90;68.90
4199;BME280;2113;50.946;14.610;2022-12-07T02:43:52;96630.72;;;2.86;68.57
4199;BME280;2113;50.946;14.610;2022-12-07T02:46:25;96629.97;;;2.78;69.82
4199;BME280;2113;50.946;14.610;2022-12-07T02:48:55;96622.56;;;3.18;68.07
4199;BME280;2113;50.946;14.610;2022-12-07T02:51:29;96633.09;;;3.00;68.69
4199;BME280;2113;50.946;14.610;2022-12-07T02:53:58;96628.03;;;2.93;69.20
4199;BME280;2113;50.946;14.610;2022-12-07T02:56:31;96626.34;;;2.92;69.50
4199;BME280;2113;50.946;14.610;2022-12-07T02:59:16;96619.53;;;2.88;68.93
4199;BME280;2113;50.946;14.610;2022-12-07T03:01:54;96614.28;;;2.98;69.12
4199;BME280;2113;50.946;14.610;2022-12-07T03:04:33;96610.16;;;2.86;69.68
4199;BME280;2113;50.946;14.610;2022-12-07T03:07:15;96609.03;;;3.07;68.17
4199;BME280;2113;50.946;14.610;2022-12-07T03:09:52;96603.03;;;3.06;68.95
4199;BME280;2113;50.946;14.610;2022-12-07T03:12:27;96603.97;;;3.01;69.02
4199;BME280;2113;50.946;14.610;2022-12-07T03:15:05;96604.53;;;3.21;68.69
4199;BME280;2113;50.946;14.610;2022-12-07T03:17:39;96600.63;;;2.96;68.99
4199;BME280;2113;50.946;14.610;2022-12-07T03:20:14;96604.19;;;2.85;69.88
4199;BME280;2113;50.946;14.610;2022-12-07T03:22:47;96607.06;;;2.62;69.59
4199;BME280;2113;50.946;14.610;2022-12-07T03:25:16;96604.19;;;2.85;68.98
4199;BME280;2113;50.946;14.610;2022-12-07T03:27:49;96601.28;;;3.10;68.55
4199;BME280;2113;50.946;14.610;2022-12-07T03:30:21;96593.47;;;3.18;68.54
4199;BME280;2113;50.946;14.610;2022-12-07T03:32:55;96588.72;;;2.88;69.55
4199;BME280;2113;50.946;14.610;2022-12-07T03:35:29;96592.47;;;2.66;69.82
4199;BME280;2113;50.946;14.610;2022-12-07T03:38:04;96589.28;;;3.09;68.54
4199;BME280;2113;50.946;14.610;2022-12-07T03:40:40;96592.00;;;3.00;68.87
4199;BME280;2113;50.946;14.610;2022-12-07T03:43:12;96602.25;;;3.00;68.63
4199;BME280;2113;50.946;14.610;2022-12-07T03:45:42;96593.47;;;3.16;68.82
4199;BME280;2113;50.946;14.610;2022-12-07T03:48:22;96594.72;;;2.90;69.50
4199;BME280;2113;50.946;14.610;2022-12-07T03:50:54;96587.78;;;2.94;69.26
4199;BME280;2113;50.946;14.610;2022-12-07T03:53:30;96592.88;;;2.99;69.00
4199;BME280;2113;50.946;14.610;2022-12-07T03:56:03;96596.13;;;2.46;70.96
4199;BME280;2113;50.946;14.610;2022-12-07T03:58:31;96605.69;;;2.33;70.76
4199;BME280;2113;50.946;14.610;2022-12-07T04:01:01;96599.94;;;2.11;70.01
4199;BME280;2113;50.946;14.610;2022-12-07T04:03:30;96596.69;;;2.71;67.68
4199;BME280;2113;50.946;14.610;2022-12-07T04:05:58;96595.38;;;3.02;66.08
4199;BME280;2113;50.946;14.610;2022-12-07T04:08:27;96585.72;;;2.59;65.52
4199;BME280;2113;50.946;14.610;2022-12-07T04:10:55;96590.88;;;2.54;66.38
4199;BME280;2113;50.946;14.610;2022-12-07T04:13:23;96592.31;;;2.75;66.37
4199;BME280;2113;50.946;14.610;2022-12-07T04:15:51;96581.47;;;2.56;66.12
4199;BME280;2113;50.946;14.610;2022-12-07T04:18:20;96585.53;;;2.71;65.70
4199;BME280;2113;50.946;14.610;2022-12-07T04:20:49;96578.53;;;2.82;65.78
4199;BME280;2113;50.946;14.610;2022-12-07T04:23:17;96573.41;;;2.82;65.61
4199;BME280;2113;50.946;14.610;2022-12-07T04:25:47;96576.50;;;3.06;65.73
4199;BME280;2113;50.946;14.610;2022-12-07T04:28:16;96568.50;;;2.65;66.21
4199;BME280;2113;50.946;14.610;2022-12-07T04:30:45;96571.13;;;2.64;66.75
4199;BME280;2113;50.946;14.610;2022-12-07T04:33:13;96571.44;;;2.39;67.13
4199;BME280;2113;50.946;14.610;2022-12-07T04:35:42;96573.50;;;2.06;68.18
4199;BME280;2113;50.946;14.610;2022-12-07T04:38:12;96575.97;;;2.15;68.92
4199;BME280;2113;50.946;14.610;2022-12-07T04:40:40;96572.25;;;2.41;67.66
4199;BME280;2113;50.946;14.610;2022-12-07T04:43:08;96563.63;;;2.45;67.25
4199;BME280;2113;50.946;14.610;2022-12-07T04:45:37;96573.16;;;2.37;68.17
4199;BME280;2113;50.946;14.610;2022-12-07T04:48:05;96559.41;;;2.43;67.67
4199;BME280;2113;50.946;14.610;2022-12-07T04:50:35;96558.53;;;2.42;67.96
4199;BME280;2113;50.946;14.610;2022-12-07T04:53:13;96558.31;;;2.61;67.92
4199;BME280;2113;50.946;14.610;2022-12-07T04:55:41;96558.44;;;2.48;68.65
4199;BME280;2113;50.946;14.610;2022-12-07T04:58:09;96548.34;;;2.36;67.89
4199;BME280;2113;50.946;14.610;2022-12-07T05:00:38;96544.34;;;2.15;69.11
4199;BME280;2113;50.946;14.610;2022-12-07T05:03:07;96551.72;;;2.41;68.05
4199;BME280;2113;50.946;14.610;2022-12-07T05:05:35;96551.31;;;2.04;69.60
4199;BME280;2113;50.946;14.610;2022-12-07T05:08:03;96557.09;;;2.20;69.53
4199;BME280;2113;50.946;14.610;2022-12-07T05:10:33;96546.63;;;2.38;68.28
4199;BME280;2113;50.946;14.610;2022-12-07T05:13:01;96543.63;;;2.02;69.31
4199;BME280;2113;50.946;14.610;2022-12-07T05:15:29;96544.22;;;2.26;68.66
4199;BME280;2113;50.946;14.610;2022-12-07T05:17:58;96547.38;;;2.46;68.55
4199;BME280;2113;50.946;14.610;2022-12-07T05:20:26;96538.94;;;2.35;68.54
4199;BME280;2113;50.946;14.610;2022-12-07T05:22:54;96541.66;;;2.26;68.81
4199;BME280;2113;50.946;14.610;2022-12-07T05:25:22;96544.25;;;2.23;69.03
4199;BME280;2113;50.946;14.610;2022-12-07T05:27:52;96546.97;;;2.10;68.89
4199;BME280;2113;50.946;14.610;2022-12-07T05:30:20;96548.53;;;2.21;68.43
4199;BME280;2113;50.946;14.610;2022-12-07T05:32:48;96547.00;;;2.04;70.04
4199;BME280;2113;50.946;14.610;2022-12-07T05:35:16;96537.84;;;2.56;68.36
4199;BME280;2113;50.946;14.610;2022-12-07T05:37:45;96531.94;;;2.48;68.26
4199;BME280;2113;50.946;14.610;2022-12-07T05:40:14;96527.59;;;2.56;68.22
4199;BME280;2113;50.946;14.610;2022-12-07T05:42:42;96527.84;;;2.36;68.48
4199;BME280;2113;50.946;14.610;2022-12-07T05:45:12;96522.09;;;2.17;69.25
4199;BME280;2113;50.946;14.610;2022-12-07T05:47:41;96531.09;;;2.50;67.69
4199;BME280;2113;50.946;14.610;2022-12-07T05:50:09;96527.72;;;2.45;67.74
4199;BME280;2113;50.946;14.610;2022-12-07T05:52:37;96519.28;;;2.37;68.55
4199;BME280;2113;50.946;14.610;2022-12-07T05:55:06;96528.06;;;2.18;68.92
4199;BME280;2113;50.946;14.610;2022-12-07T05:57:35;96532.44;;;2.08;69.19
4199;BME280;2113;50.946;14.610;2022-12-07T06:00:03;96527.19;;;2.19;69.00
4199;BME280;2113;50.946;14.610;2022-12-07T06:02:39;96524.25;;;2.46;67.84
4199;BME280;2113;50.946;14.610;2022-12-07T06:05:07;96523.03;;;2.10;68.63
4199;BME280;2113;50.946;14.610;2022-12-07T06:07:36;96514.50;;;2.06;68.61
4199;BME280;2113;50.946;14.610;2022-12-07T06:10:05;96520.41;;;2.16;68.90
4199;BME280;2113;50.946;14.610;2022-12-07T06:12:33;96517.75;;;2.24;68.72
4199;BME280;2113;50.946;14.610;2022-12-07T06:15:00;96513.00;;;1.91;69.46
4199;BME280;2113;50.946;14.610;2022-12-07T06:17:28;96504.00;;;1.55;70.34
4199;BME280;2113;50.946;14.610;2022-12-07T06:19:58;96511.19;;;1.98;69.15
4199;BME280;2113;50.946;14.610;2022-12-07T06:22:26;96501.63;;;2.12;69.43
4199;BME280;2113;50.946;14.610;2022-12-07T06:24:54;96494.94;;;2.01;69.75
4199;BME280;2113;50.946;14.610;2022-12-07T06:27:23;96511.28;;;1.89;69.82
4199;BME280;2113;50.946;14.610;2022-12-07T06:29:51;96497.69;;;1.84;69.90
4199;BME280;2113;50.946;14.610;2022-12-07T06:32:19;96499.19;;;2.03;69.40
4199;BME280;2113;50.946;14.610;2022-12-07T06:34:47;96504.25;;;2.06;68.57
4199;BME280;2113;50.946;14.610;2022-12-07T06:37:17;96508.31;;;2.26;68.63
4199;BME280;2113;50.946;14.610;2022-12-07T06:39:45;96504.25;;;2.06;69.23
4199;BME280;2113;50.946;14.610;2022-12-07T06:42:14;96510.59;;;2.44;67.72
4199;BME280;2113;50.946;14.610;2022-12-07T06:44:43;96501.28;;;2.39;67.38
4199;BME280;2113;50.946;14.610;2022-12-07T06:47:11;96504.66;;;2.42;67.96
4199;BME280;2113;50.946;14.610;2022-12-07T06:49:59;96499.03;;;2.78;66.53
4199;BME280;2113;50.946;14.610;2022-12-07T06:52:30;96503.81;;;2.40;67.04
4199;BME280;2113;50.946;14.610;2022-12-07T06:54:58;96496.38;;;2.82;67.19
4199;BME280;2113;50.946;14.610;2022-12-07T06:57:26;96506.84;;;2.70;67.24
4199;BME280;2113;50.946;14.610;2022-12-07T06:59:55;96499.75;;;2.87;65.72
4199;BME280;2113;50.946;14.610;2022-12-07T07:02:23;96493.22;;;2.65;66.98
4199;BME280;2113;50.946;14.610;2022-12-07T07:04:51;96490.88;;;3.05;66.47
4199;BME280;2113;50.946;14.610;2022-12-07T07:07:19;96490.38;;;2.83;65.66
4199;BME280;2113;50.946;14.610;2022-12-07T07:09:49;96484.19;;;2.97;65.98
4199;BME280;2113;50.946;14.610;2022-12-07T07:12:17;96484.19;;;3.48;65.18
4199;BME280;2113;50.946;14.610;2022-12-07T07:14:45;96488.00;;;3.25;64.61
4199;BME280;2113;50.946;14.610;2022-12-07T07:17:14;96482.38;;;3.02;65.56
4199;BME280;2113;50.946;14.610;2022-12-07T07:19:42;96483.91;;;3.13;65.11
4199;BME280;2113;50.946;14.610;2022-12-07T07:22:11;96488.50;;;2.94;64.84
4199;BME280;2113;50.946;14.610;2022-12-07T07:24:39;96485.16;;;2.89;66.01
4199;BME280;2113;50.946;14.610;2022-12-07T07:27:08;96492.50;;;3.11;64.91
4199;BME280;2113;50.946;14.610;2022-12-07T07:29:37;96487.28;;;2.61;66.06
4199;BME280;2113;50.946;14.610;2022-12-07T07:32:05;96486.50;;;3.12;65.29
4199;BME280;2113;50.946;14.610;2022-12-07T07:34:34;96488.16;;;3.16;64.22
4199;BME280;2113;50.946;14.610;2022-12-07T07:37:02;96482.34;;;3.05;64.37
4199;BME280;2113;50.946;14.610;2022-12-07T07:39:31;96482.66;;;3.36;64.08
4199;BME280;2113;50.946;14.610;2022-12-07T07:41:59;96483.28;;;2.99;64.09
4199;BME280;2113;50.946;14.610;2022-12-07T07:44:33;96482.34;;;3.05;65.61
4199;BME280;2113;50.946;14.610;2022-12-07T07:47:03;96483.53;;;2.82;65.28
4199;BME280;2113;50.946;14.610;2022-12-07T07:49:31;96481.44;;;3.07;64.95
4199;BME280;2113;50.946;14.610;2022-12-07T07:52:00;96485.06;;;2.94;64.68
4199;BME280;2113;50.946;14.610;2022-12-07T07:54:28;96481.81;;;2.84;65.38
4199;BME280;2113;50.946;14.610;2022-12-07T07:56:57;96484.59;;;2.70;65.72
4199;BME280;2113;50.946;14.610;2022-12-07T07:59:25;96489.03;;;2.58;65.78
4199;BME280;2113;50.946;14.610;2022-12-07T08:01:55;96489.63;;;2.75;66.65
4199;BME280;2113;50.946;14.610;2022-12-07T08:04:23;96490.69;;;2.62;66.38
4199;BME280;2113;50.946;14.610;2022-12-07T08:06:51;96495.09;;;2.53;67.86
4199;BME280;2113;50.946;14.610;2022-12-07T08:09:20;96498.25;;;2.71;67.86
4199;BME280;2113;50.946;14.610;2022-12-07T08:11:48;96493.44;;;3.05;67.79
4199;BME280;2113;50.946;14.610;2022-12-07T08:14:17;96496.97;;;3.00;67.86
4199;BME280;2113;50.946;14.610;2022-12-07T08:16:45;96494.69;;;2.81;67.86
4199;BME280;2113;50.946;14.610;2022-12-07T08:19:15;96498.28;;;2.69;69.51
4199;BME280;2113;50.946;14.610;2022-12-07T08:21:43;96496.75;;;2.58;69.71
4199;BME280;2113;50.946;14.610;2022-12-07T08:24:11;96498.13;;;2.80;68.83
4199;BME280;2113;50.946;14.610;2022-12-07T08:26:40;96505.09;;;2.72;69.26
4199;BME280;2113;50.946;14.610;2022-12-07T08:29:08;96503.03;;;2.37;70.02
4199;BME280;2113;50.946;14.610;2022-12-07T08:31:37;96500.09;;;2.63;68.99
4199;BME280;2113;50.946;14.610;2022-12-07T08:34:06;96493.63;;;2.37;70.45
4199;BME280;2113;50.946;14.610;2022-12-07T08:36:36;96503.09;;;2.30;70.46
4199;BME280;2113;50.946;14.610;2022-12-07T08:39:04;96498.59;;;2.46;70.58
4199;BME280;2113;50.946;14.610;2022-12-07T08:41:53;96495.16;;;2.49;70.50
4199;BME280;2113;50.946;14.610;2022-12-07T08:44:21;96506.50;;;2.31;70.90
4199;BME280;2113;50.946;14.610;2022-12-07T08:46:52;96503.03;;;2.35;71.05
4199;BME280;2113;50.946;14.610;2022-12-07T08:49:24;96509.63;;;2.54;70.62
4199;BME280;2113;50.946;14.610;2022-12-07T08:51:57;96511.63;;;2.34;71.32
4199;BME280;2113;50.946;14.610;2022-12-07T08:54:25;96518.59;;;2.24;71.19
4199;BME280;2113;50.946;14.610;2022-12-07T08:56:55;96516.00;;;2.26;71.40
4199;BME280;2113;50.946;14.610;2022-12-07T08:59:26;96515.19;;;2.22;71.13
4199;BME280;2113;50.946;14.610;2022-12-07T09:01:56;96513.38;;;2.29;71.95
4199;BME280;2113;50.946;14.610;2022-12-07T09:04:24;96510.91;;;2.23;72.52
4199;BME280;2113;50.946;14.610;2022-12-07T09:06:53;96512.53;;;2.30;71.75
4199;BME280;2113;50.946;14.610;2022-12-07T09:09:23;96503.53;;;2.62;70.85
4199;BME280;2113;50.946;14.610;2022-12-07T09:11:51;96510.41;;;2.60;70.36
4199;BME280;2113;50.946;14.610;2022-12-07T09:14:20;96508.09;;;2.41;71.26
4199;BME280;2113;50.946;14.610;2022-12-07T09:16:48;96502.69;;;2.60;71.74
4199;BME280;2113;50.946;14.610;2022-12-07T09:19:17;96515.81;;;2.41;71.07
4199;BME280;2113;50.946;14.610;2022-12-07T09:21:45;96507.94;;;2.52;71.49
4199;BME280;2113;50.946;14.610;2022-12-07T09:24:14;96515.94;;;2.30;72.17
4199;BME280;2113;50.946;14.610;2022-12-07T09:26:45;96517.06;;;2.73;71.99
4199;BME280;2113;50.946;14.610;2022-12-07T09:29:14;96517.97;;;2.69;72.10
4199;BME280;2113;50.946;14.610;2022-12-07T09:31:42;96518.63;;;2.83;70.94
4199;BME280;2113;50.946;14.610;2022-12-07T09:34:10;96519.78;;;2.64;71.61
4199;BME280;2113;50.946;14.610;2022-12-07T09:36:39;96516.31;;;2.66;71.70
4199;BME280;2113;50.946;14.610;2022-12-07T09:39:09;96513.75;;;2.65;71.45
4199;BME280;2113;50.946;14.610;2022-12-07T09:41:38;96505.72;;;2.86;72.01
4199;BME280;2113;50.946;14.610;2022-12-07T09:44:12;96501.28;;;2.98;71.60
4199;BME280;2113;50.946;14.610;2022-12-07T09:46:43;96488.94;;;3.21;71.11
4199;BME280;2113;50.946;14.610;2022-12-07T09:49:14;96494.03;;;3.71;68.97
4199;BME280;2113;50.946;14.610;2022-12-07T09:51:44;96492.56;;;3.58;69.24
4199;BME280;2113;50.946;14.610;2022-12-07T09:54:13;96499.75;;;3.39;69.07
4199;BME280;2113;50.946;14.610;2022-12-07T09:56:42;96510.22;;;3.28;69.92
4199;BME280;2113;50.946;14.610;2022-12-07T09:59:17;96496.22;;;2.94;71.11
4199;BME280;2113;50.946;14.610;2022-12-07T10:01:47;96490.38;;;2.85;70.90
4199;BME280;2113;50.946;14.610;2022-12-07T10:04:18;96496.13;;;2.99;72.11
4199;BME280;2113;50.946;14.610;2022-12-07T10:06:48;96492.22;;;3.28;70.57
4199;BME280;2113;50.946;14.610;2022-12-07T10:09:20;96487.47;;;3.05;70.64
4199;BME280;2113;50.946;14.610;2022-12-07T10:12:04;96486.00;;;3.41;70.18
4199;BME280;2113;50.946;14.610;2022-12-07T10:14:37;96486.28;;;3.24;70.86
4199;BME280;2113;50.946;14.610;2022-12-07T10:17:31;96482.19;;;3.16;70.91
4199;BME280;2113;50.946;14.610;2022-12-07T10:20:27;96475.03;;;3.31;71.10
4199;BME280;2113;50.946;14.610;2022-12-07T10:22:58;96480.56;;;3.10;70.25
4199;BME280;2113;50.946;14.610;2022-12-07T10:25:28;96476.56;;;3.42;70.06
4199;BME280;2113;50.946;14.610;2022-12-07T10:28:01;96477.09;;;3.11;70.47
4199;BME280;2113;50.946;14.610;2022-12-07T10:30:46;96477.31;;;3.48;70.35
4199;BME280;2113;50.946;14.610;2022-12-07T10:33:27;96484.81;;;3.09;70.73
4199;BME280;2113;50.946;14.610;2022-12-07T10:35:57;96482.19;;;3.14;70.17
4199;BME280;2113;50.946;14.610;2022-12-07T10:38:26;96482.03;;;3.23;70.55
4199;BME280;2113;50.946;14.610;2022-12-07T10:41:04;96482.19;;;3.14;71.12
4199;BME280;2113;50.946;14.610;2022-12-07T10:43:33;96478.72;;;3.15;70.72
4199;BME280;2113;50.946;14.610;2022-12-07T10:46:22;96482.88;;;3.25;70.43
4199;BME280;2113;50.946;14.610;2022-12-07T10:49:06;96483.38;;;3.46;69.23
4199;BME280;2113;50.946;14.610;2022-12-07T10:51:43;96492.22;;;3.29;69.72
4199;BME280;2113;50.946;14.610;2022-12-07T10:54:19;96471.69;;;3.26;69.12
4199;BME280;2113;50.946;14.610;2022-12-07T10:57:16;96478.28;;;3.43;69.19
4199;BME280;2113;50.946;14.610;2022-12-07T11:00:02;96474.47;;;3.64;69.20
4199;BME280;2113;50.946;14.610;2022-12-07T11:02:43;96478.03;;;3.55;69.17
4199;BME280;2113;50.946;14.610;2022-12-07T11:05:21;96478.97;;;3.51;68.19
4199;BME280;2113;50.946;14.610;2022-12-07T11:08:00;96481.63;;;3.48;68.64
4199;BME280;2113;50.946;14.610;2022-12-07T11:10:37;96477.53;;;3.83;68.06
4199;BME280;2113;50.946;14.610;2022-12-07T11:13:22;96471.09;;;4.05;67.73
4199;BME280;2113;50.946;14.610;2022-12-07T11:16:19;96472.50;;;3.77;68.08
4199;BME280;2113;50.946;14.610;2022-12-07T11:19:11;96474.06;;;3.84;68.04
4199;BME280;2113;50.946;14.610;2022-12-07T11:21:45;96469.34;;;4.06;67.50
4199;BME280;2113;50.946;14.610;2022-12-07T11:24:19;96462.97;;;3.82;68.63
4199;BME280;2113;50.946;14.610;2022-12-07T11:27:04;96460.84;;;4.02;67.72
4199;BME280;2113;50.946;14.610;2022-12-07T11:29:49;96454.97;;;4.75;66.14
4199;BME280;2113;50.946;14.610;2022-12-07T11:32:27;96446.31;;;5.14;65.36
4199;BME280;2113;50.946;14.610;2022-12-07T11:35:05;96452.50;;;4.31;67.07
4199;BME280;2113;50.946;14.610;2022-12-07T11:37:37;96443.88;;;4.36;67.42
4199;BME280;2113;50.946;14.610;2022-12-07T11:40:17;96449.69;;;4.03;67.67
4199;BME280;2113;50.946;14.610;2022-12-07T11:42:52;96446.66;;;3.83;67.91
4199;BME280;2113;50.946;14.610;2022-12-07T11:45:26;96441.22;;;3.98;67.73
4199;BME280;2113;50.946;14.610;2022-12-07T11:47:58;96437.56;;;4.08;67.57
4199;BME280;2113;50.946;14.610;2022-12-07T11:50:34;96432.63;;;4.40;66.96
4199;BME280;2113;50.946;14.610;2022-12-07T11:53:10;96433.44;;;4.01;67.69
4199;BME280;2113;50.946;14.610;2022-12-07T11:55:48;96428.50;;;3.90;67.66
4199;BME280;2113;50.946;14.610;2022-12-07T11:58:29;96437.16;;;3.43;69.07
4199;BME280;2113;50.946;14.610;2022-12-07T12:01:14;96436.00;;;3.09;71.15
4199;BME280;2113;50.946;14.610;2022-12-07T12:03:49;96423.56;;;3.36;69.96
4199;BME280;2113;50.946;14.610;2022-12-07T12:06:21;96423.53;;;3.38;70.53
4199;BME280;2113;50.946;14.610;2022-12-07T12:08:54;96422.13;;;3.21;70.44
4199;BME280;2113;50.946;14.610;2022-12-07T12:11:59;96424.75;;;3.18;70.63
4199;BME280;2113;50.946;14.610;2022-12-07T12:15:00;96413.69;;;3.13;70.60
4199;BME280;2113;50.946;14.610;2022-12-07T12:20:43;96413.03;;;3.02;71.24
4199;BME280;2113;50.946;14.610;2022-12-07T12:23:16;96415.81;;;3.38;70.62
4199;BME280;2113;50.946;14.610;2022-12-07T12:25:49;96413.31;;;3.35;70.88
4199;BME280;2113;50.946;14.610;2022-12-07T12:28:28;96407.81;;;3.53;70.46
4199;BME280;2113;50.946;14.610;2022-12-07T12:31:06;96407.13;;;3.45;70.45
4199;BME280;2113;50.946;14.610;2022-12-07T12:33:43;96409.34;;;3.63;69.83
4199;BME280;2113;50.946;14.610;2022-12-07T12:36:23;96410.31;;;3.11;71.31
4199;BME280;2113;50.946;14.610;2022-12-07T12:39:12;96409.59;;;3.04;71.55
4199;BME280;2113;50.946;14.610;2022-12-07T12:41:57;96414.19;;;2.85;71.98
4199;BME280;2113;50.946;14.610;2022-12-07T12:44:40;96409.31;;;2.70;71.86
4199;BME280;2113;50.946;14.610;2022-12-07T12:47:43;96403.94;;;2.82;72.12
4199;BME280;2113;50.946;14.610;2022-12-07T12:50:22;96408.47;;;3.19;71.46
4199;BME280;2113;50.946;14.610;2022-12-07T12:53:02;96412.00;;;3.12;70.99
4199;BME280;2113;50.946;14.610;2022-12-07T12:58:39;96418.88;;;3.11;71.02
4199;BME280;2113;50.946;14.610;2022-12-07T13:01:40;96413.41;;;3.28;70.66
4199;BME280;2113;50.946;14.610;2022-12-07T13:04:26;96415.91;;;3.33;70.17
4199;BME280;2113;50.946;14.610;2022-12-07T13:06:56;96414.22;;;3.30;69.51
4199;BME280;2113;50.946;14.610;2022-12-07T13:09:25;96420.88;;;2.94;70.90
4199;BME280;2113;50.946;14.610;2022-12-07T13:12:00;96418.84;;;3.13;70.61
4199;BME280;2113;50.946;14.610;2022-12-07T13:14:54;96428.50;;;3.00;71.34
4199;BME280;2113;50.946;14.610;2022-12-07T13:17:56;96428.69;;;2.86;71.77
4199;BME280;2113;50.946;14.610;2022-12-07T13:20:47;96426.19;;;2.83;72.56
4199;BME280;2113;50.946;14.610;2022-12-07T13:23:24;96415.81;;;2.35;72.88
4199;BME280;2113;50.946;14.610;2022-12-07T13:26:17;96422.19;;;2.65;73.68
4199;BME280;2113;50.946;14.610;2022-12-07T13:28:48;96431.34;;;2.83;72.35
4199;BME280;2113;50.946;14.610;2022-12-07T13:31:39;96424.44;;;2.87;72.14
4199;BME280;2113;50.946;14.610;2022-12-07T13:34:29;96422.97;;;2.72;72.43
4199;BME280;2113;50.946;14.610;2022-12-07T13:36:58;96413.31;;;3.35;70.13
4199;BME280;2113;50.946;14.610;2022-12-07T13:39:33;96413.69;;;3.13;70.30
4199;BME280;2113;50.946;14.610;2022-12-07T13:42:11;96413.63;;;3.18;70.11
4199;BME280;2113;50.946;14.610;2022-12-07T13:44:44;96414.31;;;3.27;69.73
4199;BME280;2113;50.946;14.610;2022-12-07T13:47:17;96413.47;;;3.70;69.07
4199;BME280;2113;50.946;14.610;2022-12-07T13:49:49;96413.69;;;3.60;68.39
4199;BME280;2113;50.946;14.610;2022-12-07T13:52:22;96415.19;;;3.70;68.17
4199;BME280;2113;50.946;14.610;2022-12-07T13:54:56;96425.34;;;3.32;69.22
4199;BME280;2113;50.946;14.610;2022-12-07T13:57:27;96422.53;;;3.45;69.13
4199;BME280;2113;50.946;14.610;2022-12-07T13:59:58;96425.59;;;3.65;68.73
4199;BME280;2113;50.946;14.610;2022-12-07T14:02:33;96415.31;;;3.64;68.57